createdAt,value
2017-11-01T00:00:34.238Z,100982
2017-11-01T00:01:33.819Z,100975
2017-11-01T00:02:34.362Z,100978
2017-11-01T00:03:34.446Z,100974
2017-11-01T00:04:34.518Z,100978
2017-11-01T00:05:34.619Z,100977
2017-11-01T00:06:34.521Z,100981
2017-11-01T00:07:34.032Z,100976
2017-11-01T00:08:34.078Z,100976
2017-11-01T00:09:34.680Z,100970
2017-11-01T00:10:34.829Z,100974
2017-11-01T00:11:34.743Z,100974
2017-11-01T00:12:34.900Z,100972
2017-11-01T00:13:34.829Z,100968
2017-11-01T00:14:34.325Z,100972
2017-11-01T00:15:34.995Z,100971
2017-11-01T00:16:34.536Z,100973
2017-11-01T00:17:34.516Z,100971
2017-11-01T00:18:34.616Z,100972
2017-11-01T00:19:35.218Z,100976
2017-11-01T00:20:35.164Z,100971
2017-11-01T00:21:35.267Z,100972
2017-11-01T00:22:34.730Z,100967
2017-11-01T00:23:34.766Z,100974
2017-11-01T00:24:34.812Z,100968
2017-11-01T00:25:35.373Z,100974
2017-11-01T00:26:35.000Z,100974
2017-11-01T00:27:35.562Z,100974
2017-11-01T00:28:35.607Z,100968
2017-11-01T00:29:35.122Z,100970
2017-11-01T00:30:35.152Z,100972
2017-11-01T00:31:35.581Z,100973
2017-11-01T00:32:35.187Z,100973
2017-11-01T00:33:35.203Z,100973
2017-11-01T00:34:35.184Z,100969
2017-11-01T00:35:35.723Z,100971
2017-11-01T00:36:35.793Z,100970
2017-11-01T00:37:35.299Z,100968
2017-11-01T00:38:35.321Z,100961
2017-11-01T00:39:35.942Z,100965
2017-11-01T00:40:35.466Z,100970
2017-11-01T00:41:36.194Z,100969
2017-11-01T00:42:36.188Z,100972
2017-11-01T00:43:35.705Z,100970
2017-11-01T00:44:36.131Z,100969
2017-11-01T00:45:35.629Z,100971
2017-11-01T00:46:36.266Z,100969
2017-11-01T00:47:36.349Z,100972
2017-11-01T00:48:35.798Z,100972
2017-11-01T00:49:36.403Z,100968
2017-11-01T00:50:36.592Z,100973
2017-11-01T00:51:36.592Z,100973
2017-11-01T00:52:36.731Z,100972
2017-11-01T00:53:36.130Z,100966
2017-11-01T00:54:36.864Z,100969
2017-11-01T00:55:36.395Z,100966
2017-11-01T00:56:36.313Z,100969
2017-11-01T00:57:37.032Z,100972
2017-11-01T00:58:36.454Z,100972
2017-11-01T00:59:36.659Z,100970
2017-11-01T01:00:37.211Z,100963
2017-11-01T01:01:36.706Z,100965
2017-11-01T01:02:37.193Z,100956
2017-11-01T01:03:36.745Z,100959
2017-11-01T01:04:37.345Z,100960
2017-11-01T01:05:36.953Z,100958
2017-11-01T01:06:36.937Z,100963
2017-11-01T01:07:37.545Z,100960
2017-11-01T01:08:37.693Z,100952
2017-11-01T01:09:37.727Z,100956
2017-11-01T01:10:37.652Z,100958
2017-11-01T01:11:37.238Z,100956
2017-11-01T01:12:37.870Z,100957
2017-11-01T01:13:37.349Z,100950
2017-11-01T01:14:37.964Z,100952
2017-11-01T01:15:37.438Z,100959
2017-11-01T01:16:37.528Z,100958
2017-11-01T01:17:38.124Z,100955
2017-11-01T01:18:38.077Z,100954
2017-11-01T01:19:37.568Z,100957
2017-11-01T01:20:38.154Z,100946
2017-11-01T01:21:38.339Z,100948
2017-11-01T01:22:38.348Z,100953
2017-11-01T01:23:38.396Z,100955
2017-11-01T01:24:37.845Z,100952
2017-11-01T01:25:37.947Z,100960
2017-11-01T01:26:38.035Z,100956
2017-11-01T01:27:38.040Z,100955
2017-11-01T01:28:38.642Z,100957
2017-11-01T01:29:38.156Z,100957
2017-11-01T01:30:38.867Z,100951
2017-11-01T01:31:38.291Z,100958
2017-11-01T01:32:38.294Z,100959
2017-11-01T01:33:38.419Z,100955
2017-11-01T01:34:38.880Z,100958
2017-11-01T01:35:38.441Z,100958
2017-11-01T01:36:39.150Z,100962
2017-11-01T01:37:38.634Z,100957
2017-11-01T01:38:38.605Z,100965
2017-11-01T01:39:38.694Z,100959
2017-11-01T01:40:39.164Z,100959
2017-11-01T01:41:39.195Z,100951
2017-11-01T01:42:39.431Z,100958
2017-11-01T01:43:39.472Z,100952
2017-11-01T01:44:38.974Z,100952
2017-11-01T01:45:39.477Z,100952
2017-11-01T01:46:38.983Z,100954
2017-11-01T01:47:39.451Z,100954
2017-11-01T01:48:38.939Z,100957
2017-11-01T01:49:39.533Z,100956
2017-11-01T01:50:39.594Z,100955
2017-11-01T01:51:39.176Z,100959
2017-11-01T01:52:39.636Z,100954
2017-11-01T01:53:39.209Z,100956
2017-11-01T01:54:39.932Z,100947
2017-11-01T01:55:39.426Z,100953
2017-11-01T01:56:39.351Z,100950
2017-11-01T01:57:40.004Z,100951
2017-11-01T01:58:39.535Z,100949
2017-11-01T01:59:40.163Z,100948
2017-11-01T02:00:40.240Z,100949
2017-11-01T02:01:39.619Z,100941
2017-11-01T02:02:40.210Z,100949
2017-11-01T02:03:39.706Z,100946
2017-11-01T02:04:40.273Z,100936
2017-11-01T02:05:40.471Z,100940
2017-11-01T02:06:40.515Z,100942
2017-11-01T02:07:40.556Z,100945
2017-11-01T02:08:40.015Z,100945
2017-11-01T02:09:40.023Z,100942
2017-11-01T02:10:40.094Z,100937
2017-11-01T02:11:40.755Z,100942
2017-11-01T02:12:40.824Z,100939
2017-11-01T02:13:40.218Z,100931
2017-11-01T02:14:40.801Z,100938
2017-11-01T02:15:40.292Z,100942
2017-11-01T02:16:40.485Z,100930
2017-11-01T02:17:40.467Z,100938
2017-11-01T02:18:40.925Z,100934
2017-11-01T02:19:40.509Z,100936
2017-11-01T02:20:40.433Z,100940
2017-11-01T02:21:41.120Z,100937
2017-11-01T02:22:40.502Z,100933
2017-11-01T02:23:40.660Z,100938
2017-11-01T02:24:40.633Z,100938
2017-11-01T02:25:41.177Z,100940
2017-11-01T02:26:40.723Z,100939
2017-11-01T02:27:41.306Z,100942
2017-11-01T02:28:40.824Z,100941
2017-11-01T02:29:40.928Z,100940
2017-11-01T02:30:40.944Z,100939
2017-11-01T02:31:41.137Z,100942
2017-11-01T02:32:41.100Z,100941
2017-11-01T02:33:41.717Z,100946
2017-11-01T02:34:41.888Z,100943
2017-11-01T02:35:41.350Z,100941
2017-11-01T02:36:41.497Z,100940
2017-11-01T02:39:47.719Z,100937
2017-11-01T02:40:47.747Z,100933
2017-11-01T02:41:47.763Z,100937
2017-11-01T02:42:48.410Z,100942
2017-11-01T02:43:47.773Z,100939
2017-11-01T02:44:47.841Z,100931
2017-11-01T02:45:47.969Z,100937
2017-11-01T02:46:48.034Z,100939
2017-11-01T02:47:48.666Z,100940
2017-11-01T02:48:48.152Z,100940
2017-11-01T02:49:48.654Z,100937
2017-11-01T02:50:48.246Z,100939
2017-11-01T02:51:48.835Z,100939
2017-11-01T02:52:48.871Z,100937
2017-11-01T02:53:48.945Z,100935
2017-11-01T02:54:48.888Z,100930
2017-11-01T02:55:48.444Z,100936
2017-11-01T02:56:48.431Z,100926
2017-11-01T02:57:48.997Z,100935
2017-11-01T02:58:48.661Z,100930
2017-11-01T02:59:49.215Z,100927
2017-11-01T03:00:49.259Z,100923
2017-11-01T03:01:49.224Z,100929
2017-11-01T03:02:48.727Z,100921
2017-11-01T03:03:49.448Z,100923
2017-11-01T03:04:49.402Z,100924
2017-11-01T03:05:49.492Z,100923
2017-11-01T03:06:49.616Z,100923
2017-11-01T03:07:49.697Z,100923
2017-11-01T03:08:49.120Z,100922
2017-11-01T03:09:49.798Z,100924
2017-11-01T03:10:49.820Z,100921
2017-11-01T03:11:49.355Z,100922
2017-11-01T03:12:49.463Z,100924
2017-11-01T03:13:49.476Z,100927
2017-11-01T03:14:50.071Z,100925
2017-11-01T03:15:49.481Z,100927
2017-11-01T03:16:50.129Z,100929
2017-11-01T03:17:49.589Z,100921
2017-11-01T03:18:49.705Z,100926
2017-11-01T03:19:49.668Z,100927
2017-11-01T03:20:50.375Z,100922
2017-11-01T03:21:50.298Z,100923
2017-11-01T03:22:50.334Z,100920
2017-11-01T03:23:50.407Z,100927
2017-11-01T03:24:50.477Z,100928
2017-11-01T03:25:50.480Z,100929
2017-11-01T03:26:50.697Z,100915
2017-11-01T03:27:50.099Z,100920
2017-11-01T03:28:50.130Z,100918
2017-11-01T03:29:50.684Z,100919
2017-11-01T03:30:50.707Z,100915
2017-11-01T03:31:50.748Z,100923
2017-11-01T03:32:50.773Z,100916
2017-11-01T03:33:50.398Z,100914
2017-11-01T03:34:50.913Z,100920
2017-11-01T03:35:50.412Z,100917
2017-11-01T03:36:50.483Z,100921
2017-11-01T03:37:51.061Z,100920
2017-11-01T03:38:50.707Z,100917
2017-11-01T03:39:51.334Z,100922
2017-11-01T03:40:51.386Z,100920
2017-11-01T03:41:51.316Z,100922
2017-11-01T03:42:51.522Z,100922
2017-11-01T03:43:51.486Z,100924
2017-11-01T03:44:51.118Z,100920
2017-11-01T03:45:51.160Z,100924
2017-11-01T03:46:51.608Z,100922
2017-11-01T03:47:51.685Z,100925
2017-11-01T03:48:51.229Z,100923
2017-11-01T03:49:51.945Z,100924
2017-11-01T03:50:51.459Z,100920
2017-11-01T03:51:52.091Z,100917
2017-11-01T03:52:51.634Z,100913
2017-11-01T03:53:51.630Z,100917
2017-11-01T03:54:51.686Z,100918
2017-11-01T03:55:51.775Z,100919
2017-11-01T03:56:52.415Z,100917
2017-11-01T03:57:52.470Z,100916
2017-11-01T03:58:52.518Z,100917
2017-11-01T03:59:51.883Z,100918
2017-11-01T04:00:52.451Z,100917
2017-11-01T04:01:52.010Z,100919
2017-11-01T04:02:52.525Z,100916
2017-11-01T04:03:52.716Z,100913
2017-11-01T04:04:52.135Z,100917
2017-11-01T04:05:52.708Z,100914
2017-11-01T04:06:52.831Z,100919
2017-11-01T04:07:52.360Z,100916
2017-11-01T04:08:52.289Z,100917
2017-11-01T04:09:52.883Z,100914
2017-11-01T04:10:52.537Z,100908
2017-11-01T04:11:53.009Z,100906
2017-11-01T04:12:53.105Z,100912
2017-11-01T04:13:53.231Z,100906
2017-11-01T04:14:52.717Z,100906
2017-11-01T04:15:52.670Z,100912
2017-11-01T04:16:52.730Z,100906
2017-11-01T04:17:53.452Z,100908
2017-11-01T04:18:53.493Z,100906
2017-11-01T04:19:53.416Z,100908
2017-11-01T04:20:52.930Z,100904
2017-11-01T04:21:53.511Z,100904
2017-11-01T04:22:53.567Z,100904
2017-11-01T04:23:53.633Z,100904
2017-11-01T04:24:53.752Z,100895
2017-11-01T04:25:53.261Z,100891
2017-11-01T04:26:53.860Z,100894
2017-11-01T04:27:53.406Z,100897
2017-11-01T04:28:54.062Z,100901
2017-11-01T04:29:54.067Z,100904
2017-11-01T04:30:53.475Z,100896
2017-11-01T04:31:54.068Z,100900
2017-11-01T04:32:54.087Z,100903
2017-11-01T04:33:54.191Z,100901
2017-11-01T04:34:54.210Z,100903
2017-11-01T04:35:54.140Z,100908
2017-11-01T04:36:53.604Z,100903
2017-11-01T04:37:53.803Z,100904
2017-11-01T04:38:54.366Z,100906
2017-11-01T04:39:54.383Z,100904
2017-11-01T04:40:54.304Z,100907
2017-11-01T04:41:53.864Z,100905
2017-11-01T04:42:54.489Z,100894
2017-11-01T04:43:54.387Z,100903
2017-11-01T04:44:54.586Z,100899
2017-11-01T04:45:53.999Z,100902
2017-11-01T04:46:54.589Z,100898
2017-11-01T04:47:54.679Z,100896
2017-11-01T04:48:54.697Z,100901
2017-11-01T04:49:54.708Z,100904
2017-11-01T04:50:54.291Z,100904
2017-11-01T04:51:54.747Z,100901
2017-11-01T04:52:54.862Z,100901
2017-11-01T04:53:54.373Z,100900
2017-11-01T04:54:54.993Z,100900
2017-11-01T04:55:54.450Z,100900
2017-11-01T04:56:55.058Z,100899
2017-11-01T04:57:54.635Z,100901
2017-11-01T04:58:55.179Z,100895
2017-11-01T04:59:55.263Z,100903
2017-11-01T05:00:55.386Z,100905
2017-11-01T05:01:54.801Z,100902
2017-11-01T05:02:55.382Z,100897
2017-11-01T05:03:55.053Z,100904
2017-11-01T05:04:55.596Z,100900
2017-11-01T05:05:55.543Z,100901
2017-11-01T05:06:55.606Z,100905
2017-11-01T05:07:55.120Z,100899
2017-11-01T05:08:55.124Z,100899
2017-11-01T05:09:55.831Z,100900
2017-11-01T05:10:55.799Z,100903
2017-11-01T05:11:55.820Z,100900
2017-11-01T05:12:55.966Z,100902
2017-11-01T05:13:55.434Z,100905
2017-11-01T05:14:55.401Z,100902
2017-11-01T05:15:56.099Z,100908
2017-11-01T05:16:56.135Z,100907
2017-11-01T05:17:55.654Z,100909
2017-11-01T05:18:55.663Z,100908
2017-11-01T05:19:56.259Z,100899
2017-11-01T05:20:55.787Z,100903
2017-11-01T05:21:55.854Z,100906
2017-11-01T05:22:55.785Z,100903
2017-11-01T05:23:55.879Z,100906
2017-11-01T05:24:56.319Z,100908
2017-11-01T05:25:56.377Z,100907
2017-11-01T05:26:55.865Z,100906
2017-11-01T05:27:56.176Z,100906
2017-11-01T05:28:56.073Z,100905
2017-11-01T05:29:56.649Z,100906
2017-11-01T05:30:56.563Z,100908
2017-11-01T05:31:56.208Z,100911
2017-11-01T05:32:56.131Z,100908
2017-11-01T05:33:56.300Z,100910
2017-11-01T05:34:56.188Z,100906
2017-11-01T05:35:56.791Z,100903
2017-11-01T05:36:56.390Z,100908
2017-11-01T05:37:56.387Z,100906
2017-11-01T05:38:57.094Z,100909
2017-11-01T05:39:56.587Z,100909
2017-11-01T05:40:56.512Z,100912
2017-11-01T05:41:57.119Z,100915
2017-11-01T05:42:57.277Z,100912
2017-11-01T05:43:56.702Z,100910
2017-11-01T05:44:57.243Z,100910
2017-11-01T05:45:57.285Z,100913
2017-11-01T05:46:56.741Z,100910
2017-11-01T05:47:56.999Z,100907
2017-11-01T05:48:57.397Z,100904
2017-11-01T05:49:56.852Z,100910
2017-11-01T05:50:57.603Z,100908
2017-11-01T05:51:57.021Z,100907
2017-11-01T05:52:57.080Z,100903
2017-11-01T05:53:57.809Z,100901
2017-11-01T05:54:57.776Z,100902
2017-11-01T05:55:57.238Z,100911
2017-11-01T05:56:57.919Z,100906
2017-11-01T05:57:57.938Z,100906
2017-11-01T05:58:57.838Z,100906
2017-11-01T05:59:57.397Z,100906
2017-11-01T06:00:58.065Z,100904
2017-11-01T06:01:57.607Z,100910
2017-11-01T06:02:57.602Z,100910
2017-11-01T06:03:57.760Z,100911
2017-11-01T06:04:57.676Z,100913
2017-11-01T06:05:58.365Z,100917
2017-11-01T06:06:57.742Z,100910
2017-11-01T06:07:58.358Z,100912
2017-11-01T06:08:58.397Z,100918
2017-11-01T06:09:58.007Z,100914
2017-11-01T06:10:58.088Z,100910
2017-11-01T06:11:58.609Z,100915
2017-11-01T06:12:58.172Z,100914
2017-11-01T06:13:58.134Z,100911
2017-11-01T06:14:58.309Z,100906
2017-11-01T06:15:58.234Z,100908
2017-11-01T06:16:58.900Z,100916
2017-11-01T06:17:58.806Z,100918
2017-11-01T06:18:58.933Z,100915
2017-11-01T06:19:58.543Z,100918
2017-11-01T06:20:59.028Z,100920
2017-11-01T06:21:58.518Z,100924
2017-11-01T06:22:59.108Z,100925
2017-11-01T06:23:58.554Z,100925
2017-11-01T06:24:58.737Z,100930
2017-11-01T06:25:59.368Z,100920
2017-11-01T06:26:59.450Z,100926
2017-11-01T06:27:58.979Z,100925
2017-11-01T06:28:58.934Z,100926
2017-11-01T06:29:59.525Z,100929
2017-11-01T06:30:59.672Z,100922
2017-11-01T06:31:59.666Z,100924
2017-11-01T06:32:59.270Z,100921
2017-11-01T06:33:59.359Z,100929
2017-11-01T06:34:59.871Z,100931
2017-11-01T06:36:00.018Z,100931
2017-11-01T06:36:59.390Z,100929
2017-11-01T06:38:00.066Z,100931
2017-11-01T06:38:59.966Z,100932
2017-11-01T06:40:00.189Z,100934
2017-11-01T06:40:59.716Z,100937
2017-11-01T06:42:00.219Z,100945
2017-11-01T06:43:00.293Z,100943
2017-11-01T06:43:59.802Z,100938
2017-11-01T06:44:59.896Z,100948
2017-11-01T06:46:00.455Z,100944
2017-11-01T06:47:00.388Z,100945
2017-11-01T06:48:00.448Z,100950
2017-11-01T06:49:00.039Z,100951
2017-11-01T06:50:00.115Z,100952
2017-11-01T06:51:00.112Z,100951
2017-11-01T06:52:00.818Z,100951
2017-11-01T06:53:00.316Z,100954
2017-11-01T06:54:00.323Z,100954
2017-11-01T06:55:00.440Z,100947
2017-11-01T06:56:01.114Z,100944
2017-11-01T06:57:01.100Z,100947
2017-11-01T06:58:00.541Z,100952
2017-11-01T06:59:00.634Z,100952
2017-11-01T07:00:01.239Z,100952
2017-11-01T07:01:00.644Z,100952
2017-11-01T07:02:01.270Z,100949
2017-11-01T07:03:01.302Z,100952
2017-11-01T07:04:00.846Z,100953
2017-11-01T07:05:01.489Z,100953
2017-11-01T07:06:01.604Z,100953
2017-11-01T07:07:01.536Z,100956
2017-11-01T07:08:01.158Z,100951
2017-11-01T07:09:01.663Z,100942
2017-11-01T07:10:01.727Z,100950
2017-11-01T07:11:01.249Z,100951
2017-11-01T07:12:01.307Z,100947
2017-11-01T07:13:01.286Z,100955
2017-11-01T07:14:01.920Z,100959
2017-11-01T07:15:01.364Z,100960
2017-11-01T07:16:01.541Z,100961
2017-11-01T07:17:01.608Z,100964
2017-11-01T07:18:02.200Z,100955
2017-11-01T07:19:02.110Z,100961
2017-11-01T07:20:01.755Z,100967
2017-11-01T07:21:02.229Z,100970
2017-11-01T07:22:02.349Z,100964
2017-11-01T07:23:01.764Z,100964
2017-11-01T07:24:01.898Z,100969
2017-11-01T07:25:01.994Z,100973
2017-11-01T07:26:02.045Z,100966
2017-11-01T07:27:01.956Z,100969
2017-11-01T07:28:02.146Z,100974
2017-11-01T07:29:02.751Z,100973
2017-11-01T07:30:02.860Z,100975
2017-11-01T07:31:02.919Z,100978
2017-11-01T07:32:02.346Z,100984
2017-11-01T07:33:03.075Z,100977
2017-11-01T07:34:02.508Z,100985
2017-11-01T07:35:03.144Z,100981
2017-11-01T07:36:02.664Z,100981
2017-11-01T07:37:03.296Z,100981
2017-11-01T07:38:02.721Z,100978
2017-11-01T07:39:02.765Z,100973
2017-11-01T07:40:02.922Z,100971
2017-11-01T07:41:03.455Z,100975
2017-11-01T07:42:03.375Z,100978
2017-11-01T07:43:03.028Z,100979
2017-11-01T07:44:03.086Z,100978
2017-11-01T07:45:03.563Z,100981
2017-11-01T07:46:03.722Z,100980
2017-11-01T07:47:03.133Z,100985
2017-11-01T07:48:03.655Z,100984
2017-11-01T07:49:03.266Z,100978
2017-11-01T07:50:03.196Z,100979
2017-11-01T07:51:03.923Z,100986
2017-11-01T07:52:03.842Z,100987
2017-11-01T07:53:03.377Z,100986
2017-11-01T07:54:03.417Z,100985
2017-11-01T07:55:03.957Z,100984
2017-11-01T07:56:04.090Z,100989
2017-11-01T07:57:03.544Z,100994
2017-11-01T07:58:04.055Z,100990
2017-11-01T07:59:03.615Z,100991
2017-11-01T08:00:04.194Z,100996
2017-11-01T08:01:03.825Z,100996
2017-11-01T08:02:04.442Z,101002
2017-11-01T08:03:03.881Z,100996
2017-11-01T08:04:03.999Z,100993
2017-11-01T08:05:04.534Z,101004
2017-11-01T08:06:04.079Z,101003
2017-11-01T08:07:04.622Z,101003
2017-11-01T08:08:04.671Z,101001
2017-11-01T08:09:04.725Z,101007
2017-11-01T08:10:04.311Z,101008
2017-11-01T08:11:04.384Z,101005
2017-11-01T08:12:04.919Z,101004
2017-11-01T08:13:04.977Z,101007
2017-11-01T08:14:04.619Z,101006
2017-11-01T08:15:05.264Z,101008
2017-11-01T08:16:05.216Z,101008
2017-11-01T08:17:04.826Z,101010
2017-11-01T08:18:04.791Z,101004
2017-11-01T08:19:04.848Z,101007
2017-11-01T08:20:04.919Z,101013
2017-11-01T08:21:05.663Z,101009
2017-11-01T08:22:05.671Z,101009
2017-11-01T08:23:05.148Z,101008
2017-11-01T08:24:05.234Z,101007
2017-11-01T08:25:05.857Z,101006
2017-11-01T08:26:05.372Z,101001
2017-11-01T08:27:05.979Z,101003
2017-11-01T08:28:05.417Z,101006
2017-11-01T08:29:06.111Z,101000
2017-11-01T08:30:06.132Z,100998
2017-11-01T08:31:05.544Z,100999
2017-11-01T08:32:06.220Z,100999
2017-11-01T08:33:05.577Z,100999
2017-11-01T08:34:06.303Z,100999
2017-11-01T08:35:05.824Z,100997
2017-11-01T08:36:05.900Z,100996
2017-11-01T08:37:05.829Z,100990
2017-11-01T08:38:06.566Z,100997
2017-11-01T08:39:05.943Z,100988
2017-11-01T08:40:06.558Z,100998
2017-11-01T08:41:06.191Z,100994
2017-11-01T08:42:06.757Z,100996
2017-11-01T08:43:06.295Z,100993
2017-11-01T08:44:06.800Z,100996
2017-11-01T08:45:06.435Z,100996
2017-11-01T08:46:07.088Z,100992
2017-11-01T08:47:06.549Z,100995
2017-11-01T08:48:06.574Z,100995
2017-11-01T08:49:07.183Z,100993
2017-11-01T08:51:07.224Z,100987
2017-11-01T08:52:06.803Z,100995
2017-11-01T08:53:06.875Z,100996
2017-11-01T08:54:07.494Z,100991
2017-11-01T08:55:07.477Z,100990
2017-11-01T08:56:07.001Z,100993
2017-11-01T08:57:07.611Z,100997
2017-11-01T08:58:07.193Z,100986
2017-11-01T08:59:07.809Z,100992
2017-11-01T09:00:07.343Z,100989
2017-11-01T09:01:07.833Z,100990
2017-11-01T09:02:07.386Z,100991
2017-11-01T09:03:07.998Z,100995
2017-11-01T09:04:07.481Z,100989
2017-11-01T09:05:08.138Z,100987
2017-11-01T09:06:07.636Z,100984
2017-11-01T09:07:07.690Z,100989
2017-11-01T09:08:07.792Z,100983
2017-11-01T09:09:08.420Z,100981
2017-11-01T09:10:07.888Z,100979
2017-11-01T09:11:08.503Z,100973
2017-11-01T09:12:08.453Z,100966
2017-11-01T09:13:08.006Z,100970
2017-11-01T09:14:08.570Z,100971
2017-11-01T09:15:08.167Z,100976
2017-11-01T09:16:08.156Z,100975
2017-11-01T09:17:08.315Z,100982
2017-11-01T09:18:08.345Z,100981
2017-11-01T09:19:08.920Z,100981
2017-11-01T09:20:08.981Z,100972
2017-11-01T09:21:08.395Z,100978
2017-11-01T09:22:09.043Z,100979
2017-11-01T09:23:09.138Z,100977
2017-11-01T09:24:08.659Z,100978
2017-11-01T09:25:08.726Z,100974
2017-11-01T09:26:09.306Z,100976
2017-11-01T09:27:08.861Z,100973
2017-11-01T09:28:08.944Z,100972
2017-11-01T09:29:09.480Z,100972
2017-11-01T09:30:09.541Z,100963
2017-11-01T09:31:09.671Z,100964
2017-11-01T09:32:09.132Z,100964
2017-11-01T09:33:09.268Z,100969
2017-11-01T09:34:09.841Z,100959
2017-11-01T09:35:09.260Z,100961
2017-11-01T09:36:09.300Z,100964
2017-11-01T09:37:09.462Z,100962
2017-11-01T09:38:09.429Z,100965
2017-11-01T09:39:10.000Z,100961
2017-11-01T09:40:10.065Z,100956
2017-11-01T09:41:10.217Z,100960
2017-11-01T09:42:10.258Z,100955
2017-11-01T09:43:09.728Z,100950
2017-11-01T09:44:10.241Z,100950
2017-11-01T09:45:10.374Z,100947
2017-11-01T09:46:09.808Z,100945
2017-11-01T09:47:09.978Z,100946
2017-11-01T09:48:09.953Z,100943
2017-11-01T09:49:10.013Z,100945
2017-11-01T09:50:10.050Z,100945
2017-11-01T09:51:10.614Z,100942
2017-11-01T09:52:10.114Z,100950
2017-11-01T09:53:10.247Z,100947
2017-11-01T09:54:10.798Z,100954
2017-11-01T09:55:10.800Z,100953
2017-11-01T09:56:10.947Z,100949
2017-11-01T09:57:10.915Z,100952
2017-11-01T09:58:10.546Z,100964
2017-11-01T09:59:10.537Z,100966
2017-11-01T10:00:10.632Z,100965
2017-11-01T10:01:10.657Z,100961
2017-11-01T10:02:10.644Z,100967
2017-11-01T10:03:11.299Z,100962
2017-11-01T10:04:11.218Z,100961
2017-11-01T10:05:11.415Z,100962
2017-11-01T10:06:10.907Z,100961
2017-11-01T10:07:10.890Z,100956
2017-11-01T10:08:11.577Z,100955
2017-11-01T10:09:11.105Z,100951
2017-11-01T10:10:11.595Z,100956
2017-11-01T10:11:11.227Z,100952
2017-11-01T10:12:11.688Z,100948
2017-11-01T10:13:11.250Z,100955
2017-11-01T10:14:11.290Z,100953
2017-11-01T10:15:11.881Z,100952
2017-11-01T10:16:11.375Z,100946
2017-11-01T10:17:11.474Z,100947
2017-11-01T10:18:11.515Z,100950
2017-11-01T10:19:11.526Z,100952
2017-11-01T10:20:11.650Z,100946
2017-11-01T10:21:11.722Z,100951
2017-11-01T10:22:12.339Z,100946
2017-11-01T10:23:11.756Z,100941
2017-11-01T10:24:11.945Z,100939
2017-11-01T10:25:12.564Z,100931
2017-11-01T10:26:12.065Z,100938
2017-11-01T10:27:12.005Z,100940
2017-11-01T10:28:12.615Z,100936
2017-11-01T10:29:12.815Z,100930
2017-11-01T10:30:12.708Z,100935
2017-11-01T10:31:12.284Z,100939
2017-11-01T10:32:12.357Z,100935
2017-11-01T10:33:12.381Z,100940
2017-11-01T10:34:12.926Z,100941
2017-11-01T10:35:12.578Z,100940
2017-11-01T10:36:12.648Z,100938
2017-11-01T10:37:12.591Z,100931
2017-11-01T10:38:12.735Z,100944
2017-11-01T10:39:12.726Z,100942
2017-11-01T10:40:12.715Z,100940
2017-11-01T10:41:13.298Z,100937
2017-11-01T10:42:12.953Z,100938
2017-11-01T10:43:13.559Z,100939
2017-11-01T10:44:13.479Z,100940
2017-11-01T10:45:13.068Z,100940
2017-11-01T10:46:13.577Z,100938
2017-11-01T10:47:13.760Z,100938
2017-11-01T10:48:13.711Z,100929
2017-11-01T10:49:13.166Z,100936
2017-11-01T10:50:13.719Z,100933
2017-11-01T10:51:13.262Z,100934
2017-11-01T10:52:13.938Z,100936
2017-11-01T10:53:13.832Z,100934
2017-11-01T10:54:13.931Z,100931
2017-11-01T10:55:13.570Z,100930
2017-11-01T10:56:14.074Z,100929
2017-11-01T10:57:14.010Z,100929
2017-11-01T10:58:14.058Z,100932
2017-11-01T10:59:14.267Z,100928
2017-11-01T11:00:13.816Z,100933
2017-11-01T11:01:14.422Z,100932
2017-11-01T11:02:13.911Z,100931
2017-11-01T11:03:13.813Z,100925
2017-11-01T11:04:14.476Z,100896
2017-11-01T11:05:14.387Z,100917
2017-11-01T11:06:14.551Z,100916
2017-11-01T11:07:14.449Z,100916
2017-11-01T11:08:13.977Z,100912
2017-11-01T11:09:14.056Z,100917
2017-11-01T11:10:14.124Z,100912
2017-11-01T11:11:14.699Z,100912
2017-11-01T11:12:14.794Z,100904
2017-11-01T11:13:14.313Z,100912
2017-11-01T11:14:15.046Z,100908
2017-11-01T11:15:14.960Z,100906
2017-11-01T11:16:15.128Z,100912
2017-11-01T11:17:14.637Z,100908
2017-11-01T11:18:14.697Z,100909
2017-11-01T11:19:14.712Z,100912
2017-11-01T11:20:15.268Z,100912
2017-11-01T11:21:14.675Z,100911
2017-11-01T11:22:15.216Z,100917
2017-11-01T11:23:15.436Z,100914
2017-11-01T11:24:14.807Z,100912
2017-11-01T11:25:15.460Z,100912
2017-11-01T11:26:15.366Z,100910
2017-11-01T11:27:14.935Z,100915
2017-11-01T11:28:14.962Z,100901
2017-11-01T11:29:15.493Z,100899
2017-11-01T11:30:15.651Z,100900
2017-11-01T11:31:15.566Z,100897
2017-11-01T11:32:15.661Z,100904
2017-11-01T11:33:15.840Z,100904
2017-11-01T11:34:15.814Z,100899
2017-11-01T11:35:15.995Z,100904
2017-11-01T11:36:15.442Z,100898
2017-11-01T11:37:16.012Z,100899
2017-11-01T11:38:16.067Z,100895
2017-11-01T11:39:15.703Z,100893
2017-11-01T11:40:15.782Z,100898
2017-11-01T11:41:16.437Z,100901
2017-11-01T11:42:16.392Z,100897
2017-11-01T11:43:15.869Z,100894
2017-11-01T11:44:16.543Z,100895
2017-11-01T11:45:15.908Z,100894
2017-11-01T11:46:15.931Z,100893
2017-11-01T11:47:16.070Z,100890
2017-11-01T11:48:16.186Z,100888
2017-11-01T11:49:16.716Z,100883
2017-11-01T11:50:16.741Z,100881
2017-11-01T11:51:16.789Z,100878
2017-11-01T11:52:16.224Z,100873
2017-11-01T11:53:16.865Z,100871
2017-11-01T11:54:17.041Z,100867
2017-11-01T11:55:17.093Z,100874
2017-11-01T11:56:16.624Z,100875
2017-11-01T11:57:17.073Z,100873
2017-11-01T11:58:17.153Z,100874
2017-11-01T11:59:16.678Z,100876
2017-11-01T12:00:16.850Z,100872
2017-11-01T12:01:17.272Z,100867
2017-11-01T12:02:17.330Z,100869
2017-11-01T12:03:16.856Z,100867
2017-11-01T12:04:17.585Z,100868
2017-11-01T12:05:17.141Z,100868
2017-11-01T12:06:17.587Z,100864
2017-11-01T12:07:17.096Z,100861
2017-11-01T12:08:17.748Z,100862
2017-11-01T12:09:17.818Z,100856
2017-11-01T12:10:17.751Z,100854
2017-11-01T12:11:17.803Z,100857
2017-11-01T12:12:17.975Z,100855
2017-11-01T12:13:17.932Z,100851
2017-11-01T12:14:17.558Z,100849
2017-11-01T12:15:17.472Z,100848
2017-11-01T12:16:18.215Z,100849
2017-11-01T12:17:18.296Z,100846
2017-11-01T12:18:17.772Z,100837
2017-11-01T12:19:17.717Z,100847
2017-11-01T12:20:17.855Z,100848
2017-11-01T12:21:17.768Z,100846
2017-11-01T12:22:18.459Z,100841
2017-11-01T12:23:17.971Z,100848
2017-11-01T12:24:18.493Z,100843
2017-11-01T12:25:18.063Z,100842
2017-11-01T12:26:18.620Z,100840
2017-11-01T12:27:18.612Z,100832
2017-11-01T12:28:18.826Z,100831
2017-11-01T12:29:18.223Z,100831
2017-11-01T12:30:18.357Z,100831
2017-11-01T12:31:18.285Z,100829
2017-11-01T12:32:18.447Z,100833